^^
Meteo Knjazevac Station Historical Data
Daily Summary for November 11, 2021 Units:  Both    English   Metric
Daily Weekly Monthly Yearly Custom
  High: Low: Average:
Temperature: 34.5 °F /  1.4 °C 31.1 °F /  -0.5 °C 32.7 °F /  0.4 °C
Dew Point: 34 °F /  1.1 °C 30.9 °F /  -0.6 °C 32.4 °F /  0.2 °C
Humidity: 99% 98% 99%
Wind Speed: 2mph /  3.2km/h - 0.8mph /  1.3km/h
Wind Gust: 4mph /  6.4km/h - -
Wind- - WSW
Pressure: 30.51 in /  1033.1 hPa 30.49 in /  1032.4 hPa -
Precipitation: 0.00 in /  0 mm    
Historical Graphs
 
 
Tabular Data for November 11, 2021
Time Temperature Dew Point Pressure Wind Wind Speed Wind Gust Humidity Rainfall Rate (Hourly) solar Conditions
00:00 34.5 °F /  1.4 °C 34 °F /  1.1 °C 30.51in /  1033.1hPa ENE 1mph /  1.6km/h 3mph /  4.8km/h 98% 0.00in /  0mm 0 W/m2
00:10 34.2 °F /  1.2 °C 33.7 °F /  0.9 °C 30.51in /  1033.1hPa SW 1mph /  1.6km/h 2mph /  3.2km/h 98% 0.00in /  0mm 0 W/m2
00:20 34 °F /  1.1 °C 33.5 °F /  0.8 °C 30.51in /  1033.1hPa West 1mph /  1.6km/h 2mph /  3.2km/h 98% 0.00in /  0mm 0 W/m2
00:30 34 °F /  1.1 °C 33.7 °F /  0.9 °C 30.51in /  1033.1hPa Calm   3mph /  4.8km/h 99% 0.00in /  0mm 0 W/m2
00:40 33.8 °F /  1 °C 33.5 °F /  0.8 °C 30.51in /  1033.1hPa Calm   3mph /  4.8km/h 99% 0.00in /  0mm 0 W/m2
00:50 33.6 °F /  0.9 °C 33.4 °F /  0.8 °C 30.51in /  1033.1hPa Calm   2mph /  3.2km/h 99% 0.00in /  0mm 0 W/m2
01:00 33.4 °F /  0.8 °C 33.2 °F /  0.7 °C 30.51in /  1033.1hPa ESE 2mph /  3.2km/h 4mph /  6.4km/h 99% 0.00in /  0mm 0 W/m2
01:10 33.5 °F /  0.8 °C 33.2 °F /  0.7 °C 30.50in /  1032.7hPa Calm   4mph /  6.4km/h 99% 0.00in /  0mm 0 W/m2
01:20 33.4 °F /  0.8 °C 33.2 °F /  0.7 °C 30.50in /  1032.7hPa WNW 2mph /  3.2km/h 4mph /  6.4km/h 99% 0.00in /  0mm 0 W/m2
01:30 33.1 °F /  0.6 °C 32.9 °F /  0.5 °C 30.50in /  1032.7hPa West 1mph /  1.6km/h 3mph /  4.8km/h 99% 0.00in /  0mm 0 W/m2
01:40 33.1 °F /  0.6 °C 32.8 °F /  0.4 °C 30.50in /  1032.7hPa Calm   2mph /  3.2km/h 99% 0.00in /  0mm 0 W/m2
01:50 32.7 °F /  0.4 °C 32.5 °F /  0.3 °C 30.50in /  1032.7hPa Calm   2mph /  3.2km/h 99% 0.00in /  0mm 0 W/m2
02:00 32.5 °F /  0.3 °C 32.3 °F /  0.2 °C 30.50in /  1032.7hPa Calm   2mph /  3.2km/h 99% 0.00in /  0mm 0 W/m2
02:10 32.4 °F /  0.2 °C 32.1 °F /  0.1 °C 30.50in /  1032.7hPa East 1mph /  1.6km/h 3mph /  4.8km/h 99% 0.00in /  0mm 0 W/m2
02:20 32.2 °F /  0.1 °C 31.9 °F /  -0.1 °C 30.50in /  1032.7hPa WNW 2mph /  3.2km/h 3mph /  4.8km/h 99% 0.00in /  0mm 0 W/m2
02:30 31.8 °F /  -0.1 °C 31.6 °F /  -0.2 °C 30.49in /  1032.4hPa NW 1mph /  1.6km/h 3mph /  4.8km/h 99% 0.00in /  0mm 0 W/m2
02:40 31.8 °F /  -0.1 °C 31.6 °F /  -0.2 °C 30.49in /  1032.4hPa Calm   3mph /  4.8km/h 99% 0.00in /  0mm 0 W/m2
02:50 31.5 °F /  -0.3 °C 31.2 °F /  -0.4 °C 30.49in /  1032.4hPa Calm   2mph /  3.2km/h 99% 0.00in /  0mm 0 W/m2
03:00 31.5 °F /  -0.3 °C 31.2 °F /  -0.4 °C 30.49in /  1032.4hPa NW 1mph /  1.6km/h 2mph /  3.2km/h 99% 0.00in /  0mm 0 W/m2
03:10 31.3 °F /  -0.4 °C 31 °F /  -0.6 °C 30.49in /  1032.4hPa West 2mph /  3.2km/h 3mph /  4.8km/h 99% 0.00in /  0mm 0 W/m2
03:20 31.1 °F /  -0.5 °C 30.9 °F /  -0.6 °C 30.49in /  1032.4hPa West 2mph /  3.2km/h 3mph /  4.8km/h 99% 0.00in /  0mm 0 W/m2
03:30 31.3 °F /  -0.4 °C 31 °F /  -0.6 °C 30.49in /  1032.4hPa Calm   3mph /  4.8km/h 99% 0.00in /  0mm 0 W/m2
03:40 31.5 °F /  -0.3 °C 31.2 °F /  -0.4 °C 30.49in /  1032.4hPa Calm   2mph /  3.2km/h 99% 0.00in /  0mm 0 W/m2
03:50 31.5 °F /  -0.3 °C 31.2 °F /  -0.4 °C 30.49in /  1032.4hPa West 1mph /  1.6km/h 2mph /  3.2km/h 99% 0.00in /  0mm 0 W/m2
Knjazevac, Serbia
Compliments of Weather Underground - 2 mb